createdAt,value
2019-02-10T00:01:17.425Z,7.20
2019-02-10T00:04:20.952Z,7.20
2019-02-10T00:07:24.525Z,7.10
2019-02-10T00:10:28.060Z,7.10
2019-02-10T00:13:35.968Z,7.00
2019-02-10T00:16:39.438Z,7.00
2019-02-10T00:19:42.817Z,7.00
2019-02-10T00:22:46.234Z,7.10
2019-02-10T00:25:49.744Z,6.90
2019-02-10T00:28:53.176Z,6.90
2019-02-10T00:31:56.747Z,6.90
2019-02-10T00:35:00.130Z,6.90
2019-02-10T00:38:03.745Z,7.00
2019-02-10T00:41:07.144Z,6.90
2019-02-10T00:44:10.581Z,6.80
2019-02-10T00:47:13.944Z,6.80
2019-02-10T00:50:17.484Z,6.80
2019-02-10T00:53:21.048Z,6.80
2019-02-10T00:56:24.557Z,6.70
2019-02-10T00:59:27.889Z,6.60
2019-02-10T01:02:31.478Z,6.50
2019-02-10T01:05:34.856Z,6.60
2019-02-10T01:08:38.497Z,6.60
2019-02-10T01:11:42.060Z,6.80
2019-02-10T01:14:45.496Z,6.90
2019-02-10T01:17:48.868Z,7.00
2019-02-10T01:20:52.264Z,7.00
2019-02-10T01:23:55.596Z,7.10
2019-02-10T01:26:58.964Z,7.10
2019-02-10T01:30:02.396Z,7.20
2019-02-10T01:33:05.888Z,7.20
2019-02-10T01:36:09.420Z,7.30
2019-02-10T01:39:15.425Z,7.30
2019-02-10T01:42:18.728Z,7.20
2019-02-10T01:45:22.332Z,7.10
2019-02-10T01:48:27.381Z,7.10
2019-02-10T01:51:30.772Z,7.20
2019-02-10T01:54:34.207Z,7.20
2019-02-10T01:57:38.931Z,7.10
2019-02-10T02:00:42.400Z,7.00
2019-02-10T02:03:45.805Z,6.90
2019-02-10T02:06:49.100Z,6.80
2019-02-10T02:09:52.536Z,6.80
2019-02-10T02:12:56.000Z,6.60
2019-02-10T02:16:00.329Z,6.50
2019-02-10T02:19:03.927Z,6.50
2019-02-10T02:22:07.433Z,6.50
2019-02-10T02:25:11.597Z,6.40
2019-02-10T02:28:15.050Z,6.20
2019-02-10T02:31:18.349Z,6.10
2019-02-10T02:34:21.845Z,6.00
2019-02-10T02:37:25.249Z,6.00
2019-02-10T02:40:28.697Z,5.90
2019-02-10T02:43:32.049Z,5.90
2019-02-10T02:46:35.346Z,5.80
2019-02-10T02:49:38.688Z,5.70
2019-02-10T02:52:42.153Z,5.70
2019-02-10T02:55:45.444Z,5.70
2019-02-10T02:58:48.946Z,5.80
2019-02-10T03:01:52.350Z,5.80
2019-02-10T03:04:55.945Z,5.70
2019-02-10T03:07:59.248Z,5.70
2019-02-10T03:11:02.674Z,5.80
2019-02-10T03:14:09.224Z,5.90
2019-02-10T03:17:12.621Z,5.90
2019-02-10T03:20:16.130Z,5.90
2019-02-10T03:23:19.424Z,6.00
2019-02-10T03:26:22.923Z,6.00
2019-02-10T03:29:26.425Z,6.00
2019-02-10T03:32:29.832Z,6.00
2019-02-10T03:35:33.364Z,6.00
2019-02-10T03:38:36.876Z,6.00
2019-02-10T03:41:40.477Z,5.90
2019-02-10T03:44:44.042Z,5.90
2019-02-10T03:47:48.501Z,5.90
2019-02-10T03:50:51.906Z,5.90
2019-02-10T03:53:55.365Z,5.90
2019-02-10T03:56:58.800Z,5.90
2019-02-10T04:00:02.168Z,5.80
2019-02-10T04:03:05.670Z,5.70
2019-02-10T04:06:09.108Z,5.50
2019-02-10T04:09:12.472Z,5.50
2019-02-10T04:12:15.804Z,5.40
2019-02-10T04:15:19.375Z,5.40
2019-02-10T04:18:22.877Z,5.40
2019-02-10T04:21:26.416Z,5.30
2019-02-10T04:24:29.783Z,5.20
2019-02-10T04:27:33.216Z,5.10
2019-02-10T04:30:36.672Z,5.10
2019-02-10T04:33:40.080Z,5.10
2019-02-10T04:36:43.524Z,5.00
2019-02-10T04:39:46.977Z,5.00
2019-02-10T04:42:50.517Z,5.00
2019-02-10T04:45:53.920Z,4.90
2019-02-10T04:48:57.493Z,4.90
2019-02-10T04:52:00.839Z,4.90
2019-02-10T04:55:03.982Z,4.90
2019-02-10T04:58:07.380Z,4.90
2019-02-10T05:01:11.008Z,4.80
2019-02-10T05:04:14.488Z,4.80
2019-02-10T05:07:18.029Z,4.80
2019-02-10T05:10:21.853Z,4.80
2019-02-10T05:13:25.200Z,4.80
2019-02-10T05:16:28.638Z,4.80
2019-02-10T05:19:32.001Z,4.70
2019-02-10T05:22:35.541Z,4.70
2019-02-10T05:25:39.000Z,4.80
2019-02-10T05:28:42.405Z,4.80
2019-02-10T05:31:46.958Z,4.80
2019-02-10T05:34:50.329Z,4.70
2019-02-10T05:37:53.727Z,4.80
2019-02-10T05:40:57.030Z,4.80
2019-02-10T05:44:00.426Z,4.80
2019-02-10T05:47:03.864Z,4.70
2019-02-10T05:50:07.534Z,4.80
2019-02-10T05:53:10.938Z,4.80
2019-02-10T05:56:14.328Z,4.80
2019-02-10T05:59:17.736Z,4.80
2019-02-10T06:02:25.323Z,4.70
2019-02-10T06:05:29.342Z,4.70
2019-02-10T06:08:32.748Z,4.70
2019-02-10T06:11:36.040Z,4.70
2019-02-10T06:14:39.345Z,4.60
2019-02-10T06:17:42.636Z,4.70
2019-02-10T06:20:45.946Z,4.70
2019-02-10T06:23:49.239Z,4.60
2019-02-10T06:26:52.572Z,4.60
2019-02-10T06:29:55.934Z,4.70
2019-02-10T06:32:59.272Z,4.70
2019-02-10T06:36:02.728Z,4.70
2019-02-10T06:39:06.197Z,4.80
2019-02-10T06:42:09.688Z,4.80
2019-02-10T06:45:13.356Z,4.90
2019-02-10T06:48:16.696Z,4.90
2019-02-10T06:51:20.157Z,4.90
2019-02-10T06:54:23.596Z,5.00
2019-02-10T06:57:27.100Z,5.00
2019-02-10T07:00:44.357Z,5.00
2019-02-10T07:04:06.568Z,5.00
2019-02-10T07:07:10.356Z,5.00
2019-02-10T07:10:13.632Z,5.00
2019-02-10T07:13:33.152Z,5.00
2019-02-10T07:17:01.700Z,5.00
2019-02-10T07:20:42.209Z,5.10
2019-02-10T07:24:20.900Z,5.20
2019-02-10T07:27:27.304Z,5.30
2019-02-10T07:30:50.228Z,5.40
2019-02-10T07:34:47.789Z,5.40
2019-02-10T07:38:18.128Z,5.50
2019-02-10T07:41:55.421Z,5.60
2019-02-10T07:45:26.504Z,5.60
2019-02-10T07:49:04.076Z,5.70
2019-02-10T07:52:29.527Z,5.70
2019-02-10T07:55:56.682Z,5.80
2019-02-10T07:59:47.500Z,5.80
2019-02-10T08:03:38.468Z,5.90
2019-02-10T08:07:13.344Z,5.90
2019-02-10T08:10:42.248Z,5.90
2019-02-10T08:14:41.725Z,6.00
2019-02-10T08:18:50.661Z,6.00
2019-02-10T08:22:34.541Z,6.00
2019-02-10T08:26:40.577Z,6.10
2019-02-10T08:30:27.124Z,6.10
2019-02-10T08:33:51.917Z,6.20
2019-02-10T08:37:10.133Z,6.30
2019-02-10T08:40:59.964Z,6.30
2019-02-10T08:44:14.440Z,6.30
2019-02-10T08:47:36.620Z,6.20
2019-02-10T08:51:02.633Z,6.20
2019-02-10T08:54:06.464Z,6.20
2019-02-10T08:57:09.947Z,6.20
2019-02-10T09:00:13.518Z,6.20
2019-02-10T09:03:19.629Z,6.10
2019-02-10T09:06:22.152Z,6.00
2019-02-10T09:09:25.516Z,6.00
2019-02-10T09:12:29.062Z,5.90
2019-02-10T09:15:32.724Z,5.90
2019-02-10T09:18:36.124Z,5.90
2019-02-10T09:21:39.568Z,5.90
2019-02-10T09:24:44.055Z,6.00
2019-02-10T09:27:49.185Z,5.90
2019-02-10T09:30:52.593Z,5.90
2019-02-10T09:33:56.090Z,5.80
2019-02-10T09:36:59.628Z,5.70
2019-02-10T09:40:03.194Z,5.60
2019-02-10T09:43:08.410Z,5.50
2019-02-10T09:46:11.844Z,5.50
2019-02-10T09:49:15.345Z,5.40
2019-02-10T09:52:18.990Z,5.30
2019-02-10T09:55:22.352Z,5.30
2019-02-10T09:58:25.784Z,5.30
2019-02-10T10:01:29.252Z,5.30
2019-02-10T10:04:32.803Z,5.30
2019-02-10T10:07:36.359Z,5.40
2019-02-10T10:10:39.756Z,5.40
2019-02-10T10:13:43.215Z,5.30
2019-02-10T10:16:46.660Z,5.30
2019-02-10T10:19:50.100Z,5.30
2019-02-10T10:22:53.597Z,5.30
2019-02-10T10:25:57.169Z,5.30
2019-02-10T10:29:00.714Z,5.30
2019-02-10T10:32:04.276Z,5.30
2019-02-10T10:35:08.186Z,5.30
2019-02-10T10:38:11.826Z,5.40
2019-02-10T10:41:15.293Z,5.40
2019-02-10T10:44:18.797Z,5.40
2019-02-10T10:47:22.402Z,5.40
2019-02-10T10:50:25.797Z,5.40
2019-02-10T10:53:29.380Z,5.40
2019-02-10T10:56:32.705Z,5.40
2019-02-10T10:59:36.100Z,5.40
2019-02-10T11:02:39.443Z,5.40
2019-02-10T11:05:42.914Z,5.40
2019-02-10T11:08:46.272Z,5.50
2019-02-10T11:11:49.804Z,5.40
2019-02-10T11:14:53.208Z,5.50
2019-02-10T11:17:56.646Z,5.50
2019-02-10T11:21:00.104Z,5.50
2019-02-10T11:24:03.608Z,5.50
2019-02-10T11:27:06.905Z,5.50
2019-02-10T11:30:10.409Z,5.50
2019-02-10T11:33:13.855Z,5.50
2019-02-10T11:36:17.206Z,5.50
2019-02-10T11:39:20.604Z,5.60
2019-02-10T11:42:24.349Z,5.60
2019-02-10T11:45:27.823Z,5.60
2019-02-10T11:48:31.356Z,5.70
2019-02-10T11:51:34.820Z,5.70
2019-02-10T11:54:38.346Z,5.80
2019-02-10T11:57:41.720Z,5.80
2019-02-10T12:00:45.029Z,5.80
2019-02-10T12:03:48.428Z,5.90
2019-02-10T12:06:51.820Z,6.00
2019-02-10T12:09:55.225Z,6.00
2019-02-10T12:12:58.653Z,6.10
2019-02-10T12:16:02.129Z,6.10
2019-02-10T12:19:05.636Z,6.20
2019-02-10T12:22:08.921Z,6.30
2019-02-10T12:25:12.548Z,6.30
2019-02-10T12:28:16.028Z,6.30
2019-02-10T12:31:19.541Z,6.40
2019-02-10T12:34:22.828Z,6.40
2019-02-10T12:37:32.276Z,6.40
2019-02-10T12:40:31.508Z,6.50
2019-02-10T12:43:34.976Z,6.50
2019-02-10T12:46:38.380Z,6.50
2019-02-10T12:49:41.720Z,6.60
2019-02-10T12:52:44.680Z,6.60
2019-02-10T12:55:48.204Z,6.60
2019-02-10T12:58:51.705Z,6.70
2019-02-10T13:01:55.169Z,6.70
2019-02-10T13:04:58.608Z,6.80
2019-02-10T13:08:02.076Z,6.80
2019-02-10T13:11:05.621Z,6.80
2019-02-10T13:14:09.220Z,6.80
2019-02-10T13:17:12.680Z,6.80
2019-02-10T13:20:16.121Z,6.80
2019-02-10T13:23:19.580Z,6.80
2019-02-10T13:26:24.956Z,6.90
2019-02-10T13:29:28.269Z,6.90
2019-02-10T13:32:31.625Z,6.90
2019-02-10T13:35:35.069Z,7.00
2019-02-10T13:38:38.528Z,7.00
2019-02-10T13:41:40.538Z,7.00
2019-02-10T13:44:44.041Z,7.00
2019-02-10T13:47:47.495Z,7.10
2019-02-10T13:50:50.944Z,7.00
2019-02-10T13:53:54.509Z,7.00
2019-02-10T13:56:57.906Z,7.00
2019-02-10T14:00:01.377Z,7.00
2019-02-10T14:03:04.809Z,7.00
2019-02-10T14:06:08.140Z,7.00
2019-02-10T14:09:11.505Z,7.00
2019-02-10T14:12:15.117Z,7.00
2019-02-10T14:15:18.669Z,6.90
2019-02-10T14:18:22.218Z,6.90
2019-02-10T14:21:25.622Z,7.00
2019-02-10T14:24:29.013Z,7.00
2019-02-10T14:27:32.421Z,6.90
2019-02-10T14:30:35.853Z,6.90
2019-02-10T14:33:39.318Z,6.90
2019-02-10T14:36:42.720Z,6.90
2019-02-10T14:39:46.057Z,6.90
2019-02-10T14:42:49.525Z,6.90
2019-02-10T14:45:53.061Z,6.90
2019-02-10T14:48:56.520Z,6.90
2019-02-10T14:52:00.952Z,7.00
2019-02-10T14:55:04.493Z,6.90
2019-02-10T14:58:08.080Z,6.90
2019-02-10T15:01:11.664Z,6.90
2019-02-10T15:04:15.057Z,6.90
2019-02-10T15:07:25.177Z,6.80
2019-02-10T15:10:24.048Z,6.90
2019-02-10T15:13:27.520Z,6.90
2019-02-10T15:16:30.909Z,6.90
2019-02-10T15:19:34.317Z,6.90
2019-02-10T15:22:37.717Z,6.90
2019-02-10T15:25:41.267Z,6.90
2019-02-10T15:28:44.817Z,6.90
2019-02-10T15:31:48.321Z,6.90
2019-02-10T15:34:51.824Z,6.90
2019-02-10T15:37:55.233Z,6.90
2019-02-10T15:40:58.625Z,6.90
2019-02-10T15:44:02.025Z,6.90
2019-02-10T15:47:05.525Z,6.90
2019-02-10T15:50:09.145Z,6.90
2019-02-10T15:53:12.532Z,6.90
2019-02-10T15:56:16.038Z,6.90
2019-02-10T15:59:19.328Z,6.80
2019-02-10T16:02:22.728Z,6.90
2019-02-10T16:05:26.173Z,6.80
2019-02-10T16:08:29.644Z,6.80
2019-02-10T16:11:33.033Z,6.90
2019-02-10T16:14:36.532Z,6.80
2019-02-10T16:17:40.036Z,6.80
2019-02-10T16:20:43.371Z,6.90
2019-02-10T16:23:46.833Z,6.90
2019-02-10T16:26:50.239Z,6.90
2019-02-10T16:29:54.660Z,6.90
2019-02-10T16:32:58.065Z,6.90
2019-02-10T16:36:01.357Z,6.90
2019-02-10T16:39:07.069Z,6.90
2019-02-10T16:42:10.660Z,6.90
2019-02-10T16:45:14.116Z,6.90
2019-02-10T16:48:17.659Z,7.00
2019-02-10T16:51:21.166Z,6.90
2019-02-10T16:54:24.520Z,6.90
2019-02-10T16:57:28.064Z,6.90
2019-02-10T17:00:31.629Z,6.90
2019-02-10T17:03:35.032Z,6.80
2019-02-10T17:06:38.470Z,6.80
2019-02-10T17:09:42.340Z,6.80
2019-02-10T17:12:45.888Z,6.90
2019-02-10T17:15:49.445Z,6.90
2019-02-10T17:18:52.853Z,6.90
2019-02-10T17:21:56.535Z,6.90
2019-02-10T17:25:00.076Z,6.90
2019-02-10T17:28:03.596Z,7.00
2019-02-10T17:31:07.105Z,7.00
2019-02-10T17:34:10.575Z,7.00
2019-02-10T17:37:14.104Z,7.00
2019-02-10T17:40:21.088Z,7.00
2019-02-10T17:43:28.240Z,7.00
2019-02-10T17:46:29.789Z,7.00
2019-02-10T17:49:33.340Z,7.10
2019-02-10T17:52:37.993Z,7.10
2019-02-10T17:55:41.434Z,7.10
2019-02-10T17:58:44.873Z,7.10
2019-02-10T18:01:48.626Z,7.10
2019-02-10T18:04:52.346Z,7.10
2019-02-10T18:07:55.992Z,7.10
2019-02-10T18:10:59.354Z,7.10
2019-02-10T18:14:04.971Z,7.20
2019-02-10T18:17:24.460Z,7.20
2019-02-10T18:20:47.952Z,7.30
2019-02-10T18:24:13.582Z,7.30
2019-02-10T18:27:49.401Z,7.30
2019-02-10T18:31:18.100Z,7.30
2019-02-10T18:34:30.850Z,7.30
2019-02-10T18:38:03.248Z,7.40
2019-02-10T18:41:39.545Z,7.40
2019-02-10T18:44:59.626Z,7.40
2019-02-10T18:48:11.425Z,7.40
2019-02-10T18:51:27.086Z,7.40
2019-02-10T18:54:55.728Z,7.50
2019-02-10T18:58:22.658Z,7.50
2019-02-10T19:01:51.236Z,7.50
2019-02-10T19:05:11.714Z,7.60
2019-02-10T19:08:40.952Z,7.60
2019-02-10T19:12:09.562Z,7.50
2019-02-10T19:15:32.279Z,7.50
2019-02-10T19:18:55.024Z,7.60
2019-02-10T19:22:08.440Z,7.60
2019-02-10T19:25:26.400Z,7.70
2019-02-10T19:29:01.372Z,7.80
2019-02-10T19:32:26.789Z,7.80
2019-02-10T19:35:43.760Z,7.90
2019-02-10T19:39:15.539Z,7.90
2019-02-10T19:42:26.988Z,7.80
2019-02-10T19:45:51.917Z,7.90
2019-02-10T19:49:22.575Z,7.90
2019-02-10T19:53:03.243Z,8.00
2019-02-10T19:56:24.981Z,7.90
2019-02-10T19:59:46.328Z,7.90
2019-02-10T20:03:05.263Z,7.90
2019-02-10T20:06:26.524Z,7.90
2019-02-10T20:09:52.593Z,7.90
2019-02-10T20:13:14.472Z,7.90
2019-02-10T20:16:22.664Z,7.90
2019-02-10T20:19:42.801Z,7.80
2019-02-10T20:23:05.012Z,7.70
2019-02-10T20:26:39.941Z,7.70
2019-02-10T20:30:08.515Z,7.70
2019-02-10T20:33:31.344Z,7.60
2019-02-10T20:36:42.740Z,7.60
2019-02-10T20:39:57.627Z,7.60
2019-02-10T20:43:32.615Z,7.70
2019-02-10T20:46:55.712Z,7.60
2019-02-10T20:50:07.405Z,7.70
2019-02-10T20:53:32.685Z,7.70
2019-02-10T20:56:55.397Z,7.60
2019-02-10T21:00:12.204Z,7.60
2019-02-10T21:03:34.122Z,7.60
2019-02-10T21:06:47.081Z,7.70
2019-02-10T21:10:18.228Z,7.70
2019-02-10T21:13:48.564Z,7.70
2019-02-10T21:17:23.761Z,7.70
2019-02-10T21:20:39.770Z,7.70
2019-02-10T21:23:57.140Z,7.70
2019-02-10T21:27:22.852Z,7.80
2019-02-10T21:30:51.616Z,7.70
2019-02-10T21:34:25.210Z,7.80
2019-02-10T21:37:37.643Z,7.70
2019-02-10T21:41:12.283Z,7.70
2019-02-10T21:44:33.920Z,7.70
2019-02-10T21:47:44.993Z,7.60
2019-02-10T21:50:48.414Z,7.70
2019-02-10T21:53:51.847Z,7.70
2019-02-10T21:56:55.501Z,7.70
2019-02-10T21:59:59.073Z,7.60
2019-02-10T22:03:03.569Z,7.60
2019-02-10T22:06:08.171Z,7.50
2019-02-10T22:09:12.976Z,7.50
2019-02-10T22:12:16.622Z,7.50
2019-02-10T22:15:20.107Z,7.50
2019-02-10T22:18:23.628Z,7.50
2019-02-10T22:21:27.224Z,7.50
2019-02-10T22:24:30.939Z,7.40
2019-02-10T22:27:34.422Z,7.30
2019-02-10T22:30:37.902Z,7.30
2019-02-10T22:33:41.532Z,7.30
2019-02-10T22:36:44.892Z,7.30
2019-02-10T22:39:48.552Z,7.30
2019-02-10T22:42:52.053Z,7.20
2019-02-10T22:45:55.605Z,7.20
2019-02-10T22:48:59.008Z,7.20
2019-02-10T22:52:02.507Z,7.20
2019-02-10T22:55:06.217Z,7.20
2019-02-10T22:58:09.616Z,7.20
2019-02-10T23:01:13.155Z,7.20
2019-02-10T23:04:16.656Z,7.20
2019-02-10T23:07:20.273Z,7.20
2019-02-10T23:10:23.777Z,7.10
2019-02-10T23:13:27.379Z,7.10
2019-02-10T23:16:30.836Z,7.10
2019-02-10T23:19:34.521Z,7.00
2019-02-10T23:22:37.940Z,7.00
2019-02-10T23:25:41.441Z,6.90
2019-02-10T23:29:33.438Z,6.90
2019-02-10T23:32:36.988Z,6.80
2019-02-10T23:35:41.326Z,6.70
2019-02-10T23:38:45.014Z,6.70
2019-02-10T23:41:48.452Z,6.70
2019-02-10T23:44:51.957Z,6.70
2019-02-10T23:47:55.325Z,6.60
2019-02-10T23:50:58.843Z,6.60
2019-02-10T23:54:02.220Z,6.50
2019-02-10T23:57:05.517Z,6.60
